sensor_id;sensor_type;location;lat;lon;timestamp;pressure;altitude;pressure_sealevel;temperature
71640;BMP280;60912;48.968;10.124;2024-02-16T00:02:04;96404.53;;;8.08
71640;BMP280;60912;48.968;10.124;2024-02-16T00:04:29;96409.34;;;8.15
71640;BMP280;60912;48.968;10.124;2024-02-16T00:06:56;96413.34;;;8.27
71640;BMP280;60912;48.968;10.124;2024-02-16T00:09:21;96418.09;;;8.40
71640;BMP280;60912;48.968;10.124;2024-02-16T00:11:46;96410.38;;;8.38
71640;BMP280;60912;48.968;10.124;2024-02-16T00:14:13;96409.88;;;8.27
71640;BMP280;60912;48.968;10.124;2024-02-16T00:16:39;96413.56;;;8.29
71640;BMP280;60912;48.968;10.124;2024-02-16T00:19:04;96418.00;;;8.32
71640;BMP280;60912;48.968;10.124;2024-02-16T00:21:29;96408.50;;;8.33
71640;BMP280;60912;48.968;10.124;2024-02-16T00:23:55;96412.84;;;8.29
71640;BMP280;60912;48.968;10.124;2024-02-16T00:26:21;96416.31;;;8.29
71640;BMP280;60912;48.968;10.124;2024-02-16T00:28:46;96420.00;;;8.32
71640;BMP280;60912;48.968;10.124;2024-02-16T00:31:11;96417.34;;;8.39
71640;BMP280;60912;48.968;10.124;2024-02-16T00:33:37;96424.22;;;8.46
71640;BMP280;60912;48.968;10.124;2024-02-16T00:36:02;96422.22;;;8.46
71640;BMP280;60912;48.968;10.124;2024-02-16T00:38:27;96431.94;;;8.47
71640;BMP280;60912;48.968;10.124;2024-02-16T00:40:53;96427.25;;;8.56
71640;BMP280;60912;48.968;10.124;2024-02-16T00:43:18;96424.28;;;8.53
71640;BMP280;60912;48.968;10.124;2024-02-16T00:45:43;96423.03;;;8.55
71640;BMP280;60912;48.968;10.124;2024-02-16T00:48:10;96427.03;;;8.53
71640;BMP280;60912;48.968;10.124;2024-02-16T00:50:35;96420.38;;;8.49
71640;BMP280;60912;48.968;10.124;2024-02-16T00:53:01;96417.13;;;8.50
71640;BMP280;60912;48.968;10.124;2024-02-16T00:55:26;96420.06;;;8.52
71640;BMP280;60912;48.968;10.124;2024-02-16T00:57:52;96421.13;;;8.49
71640;BMP280;60912;48.968;10.124;2024-02-16T01:00:17;96414.81;;;8.41
71640;BMP280;60912;48.968;10.124;2024-02-16T01:02:44;96410.78;;;8.42
71640;BMP280;60912;48.968;10.124;2024-02-16T01:05:18;96411.81;;;8.52
71640;BMP280;60912;48.968;10.124;2024-02-16T01:07:44;96406.25;;;8.58
71640;BMP280;60912;48.968;10.124;2024-02-16T01:10:10;96410.63;;;8.61
71640;BMP280;60912;48.968;10.124;2024-02-16T01:12:37;96401.47;;;8.59
71640;BMP280;60912;48.968;10.124;2024-02-16T01:15:03;96407.28;;;8.55
71640;BMP280;60912;48.968;10.124;2024-02-16T01:17:29;96407.94;;;8.48
71640;BMP280;60912;48.968;10.124;2024-02-16T01:19:54;96402.78;;;8.44
71640;BMP280;60912;48.968;10.124;2024-02-16T01:22:20;96403.63;;;8.39
71640;BMP280;60912;48.968;10.124;2024-02-16T01:24:45;96407.84;;;8.40
71640;BMP280;60912;48.968;10.124;2024-02-16T01:27:10;96398.13;;;8.39
71640;BMP280;60912;48.968;10.124;2024-02-16T01:29:38;96396.25;;;8.34
71640;BMP280;60912;48.968;10.124;2024-02-16T01:32:04;96390.88;;;8.16
71640;BMP280;60912;48.968;10.124;2024-02-16T01:34:29;96390.13;;;8.02
71640;BMP280;60912;48.968;10.124;2024-02-16T01:36:57;96384.88;;;7.91
71640;BMP280;60912;48.968;10.124;2024-02-16T01:39:23;96382.34;;;7.93
71640;BMP280;60912;48.968;10.124;2024-02-16T01:41:49;96380.63;;;8.03
71640;BMP280;60912;48.968;10.124;2024-02-16T01:44:14;96395.41;;;8.13
71640;BMP280;60912;48.968;10.124;2024-02-16T01:46:42;96396.88;;;8.14
71640;BMP280;60912;48.968;10.124;2024-02-16T01:49:07;96384.22;;;8.11
71640;BMP280;60912;48.968;10.124;2024-02-16T01:51:33;96382.66;;;8.16
71640;BMP280;60912;48.968;10.124;2024-02-16T01:54:00;96381.25;;;8.22
71640;BMP280;60912;48.968;10.124;2024-02-16T01:56:26;96377.66;;;8.27
71640;BMP280;60912;48.968;10.124;2024-02-16T01:58:52;96375.72;;;8.35
71640;BMP280;60912;48.968;10.124;2024-02-16T02:01:17;96378.16;;;8.39
71640;BMP280;60912;48.968;10.124;2024-02-16T02:03:43;96375.94;;;8.37
71640;BMP280;60912;48.968;10.124;2024-02-16T02:06:08;96373.94;;;8.38
71640;BMP280;60912;48.968;10.124;2024-02-16T02:08:33;96377.09;;;8.42
71640;BMP280;60912;48.968;10.124;2024-02-16T02:10:59;96377.66;;;8.27
71640;BMP280;60912;48.968;10.124;2024-02-16T02:13:24;96377.56;;;8.20
71640;BMP280;60912;48.968;10.124;2024-02-16T02:15:49;96378.81;;;8.32
71640;BMP280;60912;48.968;10.124;2024-02-16T02:18:15;96382.59;;;8.42
71640;BMP280;60912;48.968;10.124;2024-02-16T02:20:40;96380.47;;;8.48
71640;BMP280;60912;48.968;10.124;2024-02-16T02:23:06;96380.13;;;8.51
71640;BMP280;60912;48.968;10.124;2024-02-16T02:25:31;96391.66;;;8.50
71640;BMP280;60912;48.968;10.124;2024-02-16T02:27:56;96386.94;;;8.37
71640;BMP280;60912;48.968;10.124;2024-02-16T02:30:22;96390.00;;;8.47
71640;BMP280;60912;48.968;10.124;2024-02-16T02:32:49;96378.34;;;8.54
71640;BMP280;60912;48.968;10.124;2024-02-16T02:35:16;96376.53;;;8.57
71640;BMP280;60912;48.968;10.124;2024-02-16T02:37:41;96381.28;;;8.56
71640;BMP280;60912;48.968;10.124;2024-02-16T02:40:08;96370.31;;;8.56
71640;BMP280;60912;48.968;10.124;2024-02-16T02:42:34;96365.56;;;8.57
71640;BMP280;60912;48.968;10.124;2024-02-16T02:44:59;96364.38;;;8.52
71640;BMP280;60912;48.968;10.124;2024-02-16T02:47:25;96354.25;;;8.60
71640;BMP280;60912;48.968;10.124;2024-02-16T02:49:50;96359.31;;;8.56
71640;BMP280;60912;48.968;10.124;2024-02-16T02:52:15;96364.31;;;8.44
71640;BMP280;60912;48.968;10.124;2024-02-16T02:54:41;96367.31;;;8.33
71640;BMP280;60912;48.968;10.124;2024-02-16T02:57:06;96369.13;;;8.18
71640;BMP280;60912;48.968;10.124;2024-02-16T02:59:32;96365.66;;;8.04
71640;BMP280;60912;48.968;10.124;2024-02-16T03:01:57;96369.16;;;8.04
71640;BMP280;60912;48.968;10.124;2024-02-16T03:04:23;96367.00;;;8.10
71640;BMP280;60912;48.968;10.124;2024-02-16T03:06:51;96370.81;;;8.21
71640;BMP280;60912;48.968;10.124;2024-02-16T03:09:16;96368.81;;;8.21
71640;BMP280;60912;48.968;10.124;2024-02-16T03:11:42;96364.47;;;8.26
71640;BMP280;60912;48.968;10.124;2024-02-16T03:14:07;96361.19;;;8.27
71640;BMP280;60912;48.968;10.124;2024-02-16T03:16:33;96369.66;;;8.29
71640;BMP280;60912;48.968;10.124;2024-02-16T03:18:58;96367.53;;;8.22
71640;BMP280;60912;48.968;10.124;2024-02-16T03:21:25;96365.13;;;8.19
71640;BMP280;60912;48.968;10.124;2024-02-16T03:23:50;96365.00;;;8.11
71640;BMP280;60912;48.968;10.124;2024-02-16T03:26:16;96366.41;;;8.04
71640;BMP280;60912;48.968;10.124;2024-02-16T03:28:44;96375.38;;;7.92
71640;BMP280;60912;48.968;10.124;2024-02-16T03:31:19;96371.81;;;7.84
71640;BMP280;60912;48.968;10.124;2024-02-16T03:33:44;96378.22;;;7.86
71640;BMP280;60912;48.968;10.124;2024-02-16T03:36:09;96375.38;;;7.92
71640;BMP280;60912;48.968;10.124;2024-02-16T03:38:35;96377.66;;;7.88
71640;BMP280;60912;48.968;10.124;2024-02-16T03:41:00;96382.03;;;7.83
71640;BMP280;60912;48.968;10.124;2024-02-16T03:43:25;96376.63;;;7.91
71640;BMP280;60912;48.968;10.124;2024-02-16T03:45:51;96381.38;;;7.90
71640;BMP280;60912;48.968;10.124;2024-02-16T03:48:16;96371.81;;;7.97
71640;BMP280;60912;48.968;10.124;2024-02-16T03:50:42;96372.94;;;8.01
71640;BMP280;60912;48.968;10.124;2024-02-16T03:53:07;96377.25;;;8.10
71640;BMP280;60912;48.968;10.124;2024-02-16T03:55:33;96372.41;;;8.16
71640;BMP280;60912;48.968;10.124;2024-02-16T03:58:02;96382.56;;;8.08
71640;BMP280;60912;48.968;10.124;2024-02-16T04:00:28;96381.31;;;8.09
71640;BMP280;60912;48.968;10.124;2024-02-16T04:02:53;96389.31;;;8.07
71640;BMP280;60912;48.968;10.124;2024-02-16T04:05:18;96389.91;;;8.00
71640;BMP280;60912;48.968;10.124;2024-02-16T04:07:44;96379.38;;;7.91
71640;BMP280;60912;48.968;10.124;2024-02-16T04:10:09;96378.13;;;7.92
71640;BMP280;60912;48.968;10.124;2024-02-16T04:12:34;96381.91;;;7.89
71640;BMP280;60912;48.968;10.124;2024-02-16T04:15:01;96382.56;;;7.82
71640;BMP280;60912;48.968;10.124;2024-02-16T04:17:26;96366.09;;;7.82
71640;BMP280;60912;48.968;10.124;2024-02-16T04:19:52;96369.88;;;7.79
71640;BMP280;60912;48.968;10.124;2024-02-16T04:22:17;96371.25;;;7.72
71640;BMP280;60912;48.968;10.124;2024-02-16T04:24:42;96380.63;;;7.63
71640;BMP280;60912;48.968;10.124;2024-02-16T04:27:08;96377.66;;;7.48
71640;BMP280;60912;48.968;10.124;2024-02-16T04:29:33;96383.97;;;7.43
71640;BMP280;60912;48.968;10.124;2024-02-16T04:31:58;96382.84;;;7.52
71640;BMP280;60912;48.968;10.124;2024-02-16T04:34:24;96379.78;;;7.68
71640;BMP280;60912;48.968;10.124;2024-02-16T04:36:49;96382.03;;;7.83
71640;BMP280;60912;48.968;10.124;2024-02-16T04:39:14;96391.31;;;7.80
71640;BMP280;60912;48.968;10.124;2024-02-16T04:41:40;96384.56;;;7.81
71640;BMP280;60912;48.968;10.124;2024-02-16T04:44:05;96387.38;;;7.89
71640;BMP280;60912;48.968;10.124;2024-02-16T04:46:31;96385.69;;;7.99
71640;BMP280;60912;48.968;10.124;2024-02-16T04:48:56;96392.88;;;8.02
71640;BMP280;60912;48.968;10.124;2024-02-16T04:51:22;96390.47;;;7.98
71640;BMP280;60912;48.968;10.124;2024-02-16T04:53:47;96403.44;;;7.85
71640;BMP280;60912;48.968;10.124;2024-02-16T04:56:13;96400.69;;;7.85
71640;BMP280;60912;48.968;10.124;2024-02-16T04:58:42;96384.56;;;7.94
71640;BMP280;60912;48.968;10.124;2024-02-16T05:01:07;96389.81;;;7.79
71640;BMP280;60912;48.968;10.124;2024-02-16T05:03:33;96398.06;;;7.79
71640;BMP280;60912;48.968;10.124;2024-02-16T05:06:00;96397.53;;;7.81
71640;BMP280;60912;48.968;10.124;2024-02-16T05:08:25;96403.44;;;7.85
71640;BMP280;60912;48.968;10.124;2024-02-16T05:10:50;96397.31;;;7.92
71640;BMP280;60912;48.968;10.124;2024-02-16T05:13:16;96396.06;;;7.93
71640;BMP280;60912;48.968;10.124;2024-02-16T05:15:45;96399.09;;;7.89
71640;BMP280;60912;48.968;10.124;2024-02-16T05:18:14;96395.53;;;7.94
71640;BMP280;60912;48.968;10.124;2024-02-16T05:20:40;96402.81;;;7.92
71640;BMP280;60912;48.968;10.124;2024-02-16T05:23:05;96404.72;;;7.97
71640;BMP280;60912;48.968;10.124;2024-02-16T05:25:30;96403.78;;;7.94
71640;BMP280;60912;48.968;10.124;2024-02-16T05:27:56;96404.50;;;7.95
71640;BMP280;60912;48.968;10.124;2024-02-16T05:30:21;96397.09;;;8.03
71640;BMP280;60912;48.968;10.124;2024-02-16T05:32:46;96402.16;;;8.12
71640;BMP280;60912;48.968;10.124;2024-02-16T05:35:12;96406.59;;;8.15
71640;BMP280;60912;48.968;10.124;2024-02-16T05:37:47;96407.66;;;8.25
71640;BMP280;60912;48.968;10.124;2024-02-16T05:40:15;96404.16;;;8.38
71640;BMP280;60912;48.968;10.124;2024-02-16T05:42:52;96401.06;;;8.41
71640;BMP280;60912;48.968;10.124;2024-02-16T05:45:18;96398.13;;;8.39
71640;BMP280;60912;48.968;10.124;2024-02-16T05:47:45;96400.66;;;8.24
71640;BMP280;60912;48.968;10.124;2024-02-16T05:50:14;96397.09;;;8.03
71640;BMP280;60912;48.968;10.124;2024-02-16T05:52:41;96410.81;;;7.90
71640;BMP280;60912;48.968;10.124;2024-02-16T05:55:10;96404.28;;;7.80
71640;BMP280;60912;48.968;10.124;2024-02-16T05:57:36;96415.47;;;7.82
71640;BMP280;60912;48.968;10.124;2024-02-16T06:00:06;96405.97;;;7.83
71640;BMP280;60912;48.968;10.124;2024-02-16T06:02:32;96413.69;;;7.97
71640;BMP280;60912;48.968;10.124;2024-02-16T06:04:59;96396.28;;;8.08
71640;BMP280;60912;48.968;10.124;2024-02-16T06:07:24;96410.31;;;8.18
71640;BMP280;60912;48.968;10.124;2024-02-16T06:09:49;96411.13;;;8.13
71640;BMP280;60912;48.968;10.124;2024-02-16T06:12:15;96405.56;;;8.18
71640;BMP280;60912;48.968;10.124;2024-02-16T06:14:41;96411.03;;;8.31
71640;BMP280;60912;48.968;10.124;2024-02-16T06:17:07;96408.50;;;8.33
71640;BMP280;60912;48.968;10.124;2024-02-16T06:19:33;96412.50;;;8.32
71640;BMP280;60912;48.968;10.124;2024-02-16T06:21:58;96421.69;;;8.35
71640;BMP280;60912;48.968;10.124;2024-02-16T06:24:24;96429.09;;;8.27
71640;BMP280;60912;48.968;10.124;2024-02-16T06:26:50;96425.81;;;8.28
71640;BMP280;60912;48.968;10.124;2024-02-16T06:29:18;96427.50;;;8.31
71640;BMP280;60912;48.968;10.124;2024-02-16T06:31:47;96430.88;;;8.24
71640;BMP280;60912;48.968;10.124;2024-02-16T06:34:15;96436.16;;;8.22
71640;BMP280;60912;48.968;10.124;2024-02-16T06:36:41;96428.88;;;8.25
71640;BMP280;60912;48.968;10.124;2024-02-16T06:39:07;96445.03;;;8.28
71640;BMP280;60912;48.968;10.124;2024-02-16T06:41:32;96443.34;;;8.25
71640;BMP280;60912;48.968;10.124;2024-02-16T06:43:58;96454.53;;;8.27
71640;BMP280;60912;48.968;10.124;2024-02-16T06:46:23;96449.66;;;8.33
71640;BMP280;60912;48.968;10.124;2024-02-16T06:48:50;96460.53;;;8.39
71640;BMP280;60912;48.968;10.124;2024-02-16T06:51:15;96460.84;;;8.35
71640;BMP280;60912;48.968;10.124;2024-02-16T06:53:40;96459.38;;;8.34
71640;BMP280;60912;48.968;10.124;2024-02-16T06:56:06;96457.28;;;8.40
71640;BMP280;60912;48.968;10.124;2024-02-16T06:58:40;96460.72;;;8.54
71640;BMP280;60912;48.968;10.124;2024-02-16T07:01:07;96469.91;;;8.70
71640;BMP280;60912;48.968;10.124;2024-02-16T07:03:34;96466.78;;;8.86
71640;BMP280;60912;48.968;10.124;2024-02-16T07:06:02;96466.56;;;8.98
71640;BMP280;60912;48.968;10.124;2024-02-16T07:08:28;96467.50;;;9.00
71640;BMP280;60912;48.968;10.124;2024-02-16T07:10:53;96473.25;;;8.89
71640;BMP280;60912;48.968;10.124;2024-02-16T07:13:19;96482.25;;;8.76
71640;BMP280;60912;48.968;10.124;2024-02-16T07:15:45;96476.22;;;8.78
71640;BMP280;60912;48.968;10.124;2024-02-16T07:18:11;96489.09;;;8.83
71640;BMP280;60912;48.968;10.124;2024-02-16T07:20:37;96486.75;;;8.87
71640;BMP280;60912;48.968;10.124;2024-02-16T07:23:03;96486.41;;;9.04
71640;BMP280;60912;48.968;10.124;2024-02-16T07:25:28;96483.09;;;9.18
71640;BMP280;60912;48.968;10.124;2024-02-16T07:27:54;96471.50;;;9.33
71640;BMP280;60912;48.968;10.124;2024-02-16T07:30:19;96472.06;;;9.39
71640;BMP280;60912;48.968;10.124;2024-02-16T07:32:48;96482.56;;;9.41
71640;BMP280;60912;48.968;10.124;2024-02-16T07:35:15;96486.56;;;9.40
71640;BMP280;60912;48.968;10.124;2024-02-16T07:37:41;96490.53;;;9.31
71640;BMP280;60912;48.968;10.124;2024-02-16T07:40:07;96492.75;;;9.32
71640;BMP280;60912;48.968;10.124;2024-02-16T07:42:38;96487.78;;;9.52
71640;BMP280;60912;48.968;10.124;2024-02-16T07:45:04;96482.00;;;9.63
71640;BMP280;60912;48.968;10.124;2024-02-16T07:47:31;96493.28;;;9.52
71640;BMP280;60912;48.968;10.124;2024-02-16T07:49:57;96489.53;;;9.42
71640;BMP280;60912;48.968;10.124;2024-02-16T07:52:22;96492.59;;;9.38
71640;BMP280;60912;48.968;10.124;2024-02-16T07:54:48;96495.91;;;9.36
71640;BMP280;60912;48.968;10.124;2024-02-16T07:57:13;96496.09;;;9.38
71640;BMP280;60912;48.968;10.124;2024-02-16T07:59:40;96504.34;;;9.38
71640;BMP280;60912;48.968;10.124;2024-02-16T08:02:05;96514.75;;;9.32
71640;BMP280;60912;48.968;10.124;2024-02-16T08:04:32;96505.59;;;9.37
71640;BMP280;60912;48.968;10.124;2024-02-16T08:06:58;96499.00;;;9.54
71640;BMP280;60912;48.968;10.124;2024-02-16T08:09:23;96498.25;;;9.74
71640;BMP280;60912;48.968;10.124;2024-02-16T08:11:48;96493.94;;;9.86
71640;BMP280;60912;48.968;10.124;2024-02-16T08:14:14;96499.97;;;10.05
71640;BMP280;60912;48.968;10.124;2024-02-16T08:16:39;96494.75;;;10.23
71640;BMP280;60912;48.968;10.124;2024-02-16T08:19:04;96506.00;;;10.32
71640;BMP280;60912;48.968;10.124;2024-02-16T08:21:30;96491.72;;;10.41
71640;BMP280;60912;48.968;10.124;2024-02-16T08:23:56;96500.53;;;10.40
71640;BMP280;60912;48.968;10.124;2024-02-16T08:26:21;96496.91;;;10.52
71640;BMP280;60912;48.968;10.124;2024-02-16T08:28:46;96494.78;;;10.66
71640;BMP280;60912;48.968;10.124;2024-02-16T08:31:16;96501.47;;;10.86
71640;BMP280;60912;48.968;10.124;2024-02-16T08:33:43;96492.31;;;10.98
71640;BMP280;60912;48.968;10.124;2024-02-16T08:36:09;96501.19;;;11.20
71640;BMP280;60912;48.968;10.124;2024-02-16T08:38:34;96502.69;;;11.43
71640;BMP280;60912;48.968;10.124;2024-02-16T08:41:02;96502.69;;;11.59
71640;BMP280;60912;48.968;10.124;2024-02-16T08:43:28;96507.84;;;11.77
71640;BMP280;60912;48.968;10.124;2024-02-16T08:45:54;96507.44;;;12.04
71640;BMP280;60912;48.968;10.124;2024-02-16T08:48:19;96509.81;;;12.37
71640;BMP280;60912;48.968;10.124;2024-02-16T08:50:45;96505.03;;;12.78
71640;BMP280;60912;48.968;10.124;2024-02-16T08:53:10;96508.63;;;12.96
71640;BMP280;60912;48.968;10.124;2024-02-16T08:55:36;96499.97;;;13.24
71640;BMP280;60912;48.968;10.124;2024-02-16T08:58:01;96506.34;;;13.34
71640;BMP280;60912;48.968;10.124;2024-02-16T09:00:27;96504.97;;;13.50
71640;BMP280;60912;48.968;10.124;2024-02-16T09:02:53;96509.09;;;13.84
71640;BMP280;60912;48.968;10.124;2024-02-16T09:05:20;96512.28;;;13.97
71640;BMP280;60912;48.968;10.124;2024-02-16T09:07:45;96512.22;;;13.88
71640;BMP280;60912;48.968;10.124;2024-02-16T09:10:12;96512.94;;;13.88
71640;BMP280;60912;48.968;10.124;2024-02-16T09:12:39;96507.81;;;14.02
71640;BMP280;60912;48.968;10.124;2024-02-16T09:15:05;96506.00;;;13.97
71640;BMP280;60912;48.968;10.124;2024-02-16T09:17:31;96512.94;;;14.05
71640;BMP280;60912;48.968;10.124;2024-02-16T09:19:56;96499.59;;;14.11
71640;BMP280;60912;48.968;10.124;2024-02-16T09:22:22;96511.06;;;14.25
71640;BMP280;60912;48.968;10.124;2024-02-16T09:24:48;96518.31;;;14.38
71640;BMP280;60912;48.968;10.124;2024-02-16T09:27:13;96506.81;;;14.58
71640;BMP280;60912;48.968;10.124;2024-02-16T09:29:39;96514.72;;;14.62
71640;BMP280;60912;48.968;10.124;2024-02-16T09:32:05;96518.88;;;14.70
71640;BMP280;60912;48.968;10.124;2024-02-16T09:34:31;96519.88;;;14.65
71640;BMP280;60912;48.968;10.124;2024-02-16T09:36:56;96514.53;;;14.77
71640;BMP280;60912;48.968;10.124;2024-02-16T09:39:22;96520.84;;;14.78
71640;BMP280;60912;48.968;10.124;2024-02-16T09:41:50;96518.44;;;14.74
71640;BMP280;60912;48.968;10.124;2024-02-16T09:44:17;96524.31;;;14.78
71640;BMP280;60912;48.968;10.124;2024-02-16T09:46:43;96527.47;;;14.92
71640;BMP280;60912;48.968;10.124;2024-02-16T09:49:08;96529.59;;;15.01
71640;BMP280;60912;48.968;10.124;2024-02-16T09:51:37;96529.84;;;15.32
71640;BMP280;60912;48.968;10.124;2024-02-16T09:54:03;96526.66;;;15.35
71640;BMP280;60912;48.968;10.124;2024-02-16T09:56:30;96530.16;;;15.36
71640;BMP280;60912;48.968;10.124;2024-02-16T09:58:55;96530.22;;;15.45
71640;BMP280;60912;48.968;10.124;2024-02-16T10:01:22;96532.56;;;15.58
71640;BMP280;60912;48.968;10.124;2024-02-16T10:03:50;96538.03;;;15.76
71640;BMP280;60912;48.968;10.124;2024-02-16T10:06:17;96536.47;;;16.01
71640;BMP280;60912;48.968;10.124;2024-02-16T10:11:15;96535.94;;;16.41
71640;BMP280;60912;48.968;10.124;2024-02-16T10:13:41;96536.06;;;16.62
71640;BMP280;60912;48.968;10.124;2024-02-16T10:16:08;96544.97;;;16.71
71640;BMP280;60912;48.968;10.124;2024-02-16T10:18:35;96547.75;;;16.71
71640;BMP280;60912;48.968;10.124;2024-02-16T10:21:01;96543.19;;;16.75
71640;BMP280;60912;48.968;10.124;2024-02-16T10:23:26;96546.97;;;16.89
71640;BMP280;60912;48.968;10.124;2024-02-16T10:25:52;96544.31;;;17.01
71640;BMP280;60912;48.968;10.124;2024-02-16T10:28:17;96555.66;;;16.84
71640;BMP280;60912;48.968;10.124;2024-02-16T10:30:46;96547.00;;;16.70
71640;BMP280;60912;48.968;10.124;2024-02-16T10:33:11;96559.63;;;16.33
71640;BMP280;60912;48.968;10.124;2024-02-16T10:35:40;96550.53;;;16.23
71640;BMP280;60912;48.968;10.124;2024-02-16T10:38:07;96554.38;;;16.37
71640;BMP280;60912;48.968;10.124;2024-02-16T10:40:42;96559.63;;;16.61
71640;BMP280;60912;48.968;10.124;2024-02-16T10:43:08;96561.53;;;16.78
71640;BMP280;60912;48.968;10.124;2024-02-16T10:45:38;96561.22;;;16.64
71640;BMP280;60912;48.968;10.124;2024-02-16T10:48:04;96569.00;;;16.28
71640;BMP280;60912;48.968;10.124;2024-02-16T10:50:34;96569.00;;;16.28
71640;BMP280;60912;48.968;10.124;2024-02-16T10:53:24;96562.84;;;16.48
71640;BMP280;60912;48.968;10.124;2024-02-16T10:55:48;96562.88;;;16.67
71640;BMP280;60912;48.968;10.124;2024-02-16T10:58:16;96565.31;;;16.44
71640;BMP280;60912;48.968;10.124;2024-02-16T11:00:52;96573.25;;;16.38
71640;BMP280;60912;48.968;10.124;2024-02-16T11:03:22;96574.09;;;16.12
71640;BMP280;60912;48.968;10.124;2024-02-16T11:05:50;96571.78;;;16.28
71640;BMP280;60912;48.968;10.124;2024-02-16T11:08:20;96577.19;;;16.45
71640;BMP280;60912;48.968;10.124;2024-02-16T11:10:59;96566.81;;;16.64
71640;BMP280;60912;48.968;10.124;2024-02-16T11:13:26;96570.91;;;16.73
71640;BMP280;60912;48.968;10.124;2024-02-16T11:16:02;96576.91;;;16.60
71640;BMP280;60912;48.968;10.124;2024-02-16T11:18:29;96565.78;;;16.50
71640;BMP280;60912;48.968;10.124;2024-02-16T11:20:54;96579.13;;;16.42
71640;BMP280;60912;48.968;10.124;2024-02-16T11:23:27;96583.63;;;16.28
71640;BMP280;60912;48.968;10.124;2024-02-16T11:25:53;96586.13;;;16.24
71640;BMP280;60912;48.968;10.124;2024-02-16T11:28:19;96577.31;;;16.18
71640;BMP280;60912;48.968;10.124;2024-02-16T11:30:44;96570.34;;;16.27
71640;BMP280;60912;48.968;10.124;2024-02-16T11:33:13;96569.31;;;16.51
71640;BMP280;60912;48.968;10.124;2024-02-16T11:35:39;96570.91;;;16.63
71640;BMP280;60912;48.968;10.124;2024-02-16T11:38:04;96573.53;;;16.81
71640;BMP280;60912;48.968;10.124;2024-02-16T11:40:30;96572.47;;;16.86
71640;BMP280;60912;48.968;10.124;2024-02-16T11:43:02;96570.84;;;17.02
71640;BMP280;60912;48.968;10.124;2024-02-16T11:45:27;96577.56;;;17.08
71640;BMP280;60912;48.968;10.124;2024-02-16T11:48:06;96578.50;;;16.82
71640;BMP280;60912;48.968;10.124;2024-02-16T11:50:32;96576.03;;;16.67
71640;BMP280;60912;48.968;10.124;2024-02-16T11:52:57;96573.53;;;16.81
71640;BMP280;60912;48.968;10.124;2024-02-16T11:55:23;96571.28;;;16.98
71640;BMP280;60912;48.968;10.124;2024-02-16T11:57:49;96568.72;;;17.31
71640;BMP280;60912;48.968;10.124;2024-02-16T12:00:16;96575.75;;;17.63
71640;BMP280;60912;48.968;10.124;2024-02-16T12:02:41;96585.63;;;17.54
71640;BMP280;60912;48.968;10.124;2024-02-16T12:05:07;96580.16;;;17.66
71640;BMP280;60912;48.968;10.124;2024-02-16T12:07:33;96585.59;;;17.85
71640;BMP280;60912;48.968;10.124;2024-02-16T12:10:00;96582.75;;;17.95
71640;BMP280;60912;48.968;10.124;2024-02-16T12:12:26;96581.56;;;17.98
71640;BMP280;60912;48.968;10.124;2024-02-16T12:14:53;96586.69;;;18.01
71640;BMP280;60912;48.968;10.124;2024-02-16T12:17:18;96576.06;;;18.09
71640;BMP280;60912;48.968;10.124;2024-02-16T12:19:44;96577.75;;;17.72
71640;BMP280;60912;48.968;10.124;2024-02-16T12:22:17;96581.84;;;17.81
71640;BMP280;60912;48.968;10.124;2024-02-16T12:24:43;96582.59;;;17.72
71640;BMP280;60912;48.968;10.124;2024-02-16T12:27:09;96583.34;;;17.72
71640;BMP280;60912;48.968;10.124;2024-02-16T12:29:34;96583.69;;;17.88
71640;BMP280;60912;48.968;10.124;2024-02-16T12:31:59;96589.75;;;18.05
71640;BMP280;60912;48.968;10.124;2024-02-16T12:34:25;96583.47;;;17.95
71640;BMP280;60912;48.968;10.124;2024-02-16T12:36:51;96587.25;;;17.79
71640;BMP280;60912;48.968;10.124;2024-02-16T12:39:16;96583.25;;;17.91
71640;BMP280;60912;48.968;10.124;2024-02-16T12:41:41;96583.31;;;18.03
71640;BMP280;60912;48.968;10.124;2024-02-16T12:44:14;96576.78;;;18.10
71640;BMP280;60912;48.968;10.124;2024-02-16T12:49:32;96576.41;;;18.25
71640;BMP280;60912;48.968;10.124;2024-02-16T12:52:03;96575.72;;;18.36
71640;BMP280;60912;48.968;10.124;2024-02-16T12:54:44;96576.91;;;18.33
71640;BMP280;60912;48.968;10.124;2024-02-16T12:57:13;96573.56;;;18.46
71640;BMP280;60912;48.968;10.124;2024-02-16T12:59:38;96576.28;;;18.56
71640;BMP280;60912;48.968;10.124;2024-02-16T13:02:04;96575.13;;;18.70
71640;BMP280;60912;48.968;10.124;2024-02-16T13:04:29;96582.91;;;18.84
71640;BMP280;60912;48.968;10.124;2024-02-16T13:06:57;96574.16;;;18.78
71640;BMP280;60912;48.968;10.124;2024-02-16T13:09:23;96578.75;;;18.73
71640;BMP280;60912;48.968;10.124;2024-02-16T13:11:48;96574.78;;;18.76
71640;BMP280;60912;48.968;10.124;2024-02-16T13:14:20;96580.78;;;18.94
71640;BMP280;60912;48.968;10.124;2024-02-16T13:16:45;96577.94;;;18.82
71640;BMP280;60912;48.968;10.124;2024-02-16T13:19:10;96578.06;;;18.84
71640;BMP280;60912;48.968;10.124;2024-02-16T13:21:36;96569.38;;;18.90
71640;BMP280;60912;48.968;10.124;2024-02-16T13:24:02;96578.09;;;18.96
71640;BMP280;60912;48.968;10.124;2024-02-16T13:26:27;96572.16;;;19.13
71640;BMP280;60912;48.968;10.124;2024-02-16T13:28:52;96569.38;;;19.13
71640;BMP280;60912;48.968;10.124;2024-02-16T13:31:20;96566.81;;;18.94
71640;BMP280;60912;48.968;10.124;2024-02-16T13:33:45;96567.25;;;18.79
71640;BMP280;60912;48.968;10.124;2024-02-16T13:36:10;96571.25;;;18.76
71640;BMP280;60912;48.968;10.124;2024-02-16T13:38:36;96569.53;;;18.70
71640;BMP280;60912;48.968;10.124;2024-02-16T13:41:01;96568.22;;;18.72
71640;BMP280;60912;48.968;10.124;2024-02-16T13:43:27;96571.13;;;18.74
71640;BMP280;60912;48.968;10.124;2024-02-16T13:45:54;96570.19;;;18.48
71640;BMP280;60912;48.968;10.124;2024-02-16T13:48:20;96578.91;;;18.42
71640;BMP280;60912;48.968;10.124;2024-02-16T13:50:48;96576.59;;;18.39
71640;BMP280;60912;48.968;10.124;2024-02-16T13:53:14;96576.59;;;18.39
71640;BMP280;60912;48.968;10.124;2024-02-16T13:55:44;96579.13;;;18.35
71640;BMP280;60912;48.968;10.124;2024-02-16T13:58:10;96572.69;;;18.32
71640;BMP280;60912;48.968;10.124;2024-02-16T14:00:36;96575.72;;;18.36
71640;BMP280;60912;48.968;10.124;2024-02-16T14:03:04;96572.19;;;18.36
71640;BMP280;60912;48.968;10.124;2024-02-16T14:05:30;96580.84;;;18.18